Whiting, Indiana
Current Conditions -  °F | °C
As of 10:45 AM on Friday 28 Nov 2014 (Local Time) from KGYY Reporting Station
Broken Clouds Broken Clouds  
Wind Chill: 16°   Ceiling: 15000
Heat Index: 28°   Visibility: 10mi
Dew Point: 16°   Wind: 17mph
Humidity: 59%   Direction: 160°SSE
Pressure: 30.21"   Gusts: NA
Location:  41.68°N, 87.49°W
Report Text: KGYY 281645Z 16015KT 10SM SCT120 BKN150 M02/M09 A3021
Loading
Personal Weather Stations






























Interactive Weather Map New forecast layout! Learn more

10-Day Weather Forecast

Advertisements
Track Severe Weather on mobile